createdAt,value
2023-04-21T00:00:59.250Z,17.73
2023-04-21T00:03:28.100Z,18.85
2023-04-21T00:06:01.542Z,24.13
2023-04-21T00:08:28.159Z,24.73
2023-04-21T00:10:54.634Z,20.38
2023-04-21T00:13:21.095Z,18.88
2023-04-21T00:15:47.663Z,15.48
2023-04-21T00:18:14.266Z,14.00
2023-04-21T00:20:41.575Z,15.48
2023-04-21T00:23:10.911Z,15.38
2023-04-21T00:25:37.364Z,16.60
2023-04-21T00:28:03.807Z,12.95
2023-04-21T00:30:30.470Z,18.73
2023-04-21T00:32:57.053Z,15.52
2023-04-21T00:35:23.561Z,12.25
2023-04-21T00:37:52.793Z,13.98
2023-04-21T00:40:19.564Z,11.82
2023-04-21T00:42:46.042Z,12.45
2023-04-21T00:45:12.606Z,14.85
2023-04-21T00:47:39.148Z,14.93
2023-04-21T00:50:05.895Z,17.70
2023-04-21T00:52:33.815Z,14.93
2023-04-21T00:55:00.399Z,11.63
2023-04-21T00:57:28.518Z,17.30
2023-04-21T00:59:55.214Z,11.68
2023-04-21T01:02:22.744Z,17.88
2023-04-21T01:04:49.673Z,14.70
2023-04-21T01:07:16.187Z,13.57
2023-04-21T01:09:42.672Z,15.88
2023-04-21T01:12:10.055Z,16.60
2023-04-21T01:14:37.596Z,12.80
2023-04-21T01:17:06.102Z,16.23
2023-04-21T01:19:34.368Z,15.73
2023-04-21T01:22:02.026Z,19.38
2023-04-21T01:24:37.774Z,12.73
2023-04-21T01:27:04.356Z,14.98
2023-04-21T01:29:34.659Z,18.02
2023-04-21T01:32:05.073Z,15.57
2023-04-21T01:34:31.621Z,17.02
2023-04-21T01:36:58.232Z,16.10
2023-04-21T01:39:24.656Z,12.70
2023-04-21T01:41:51.433Z,14.68
2023-04-21T01:44:18.115Z,16.75
2023-04-21T01:46:44.728Z,18.25
2023-04-21T01:49:11.181Z,17.70
2023-04-21T01:51:37.661Z,16.42
2023-04-21T01:54:04.232Z,13.00
2023-04-21T01:56:30.688Z,20.13
2023-04-21T01:58:57.361Z,15.32
2023-04-21T02:01:23.966Z,15.73
2023-04-21T02:03:50.857Z,17.45
2023-04-21T02:06:17.901Z,14.10
2023-04-21T02:08:44.378Z,14.85
2023-04-21T02:11:10.840Z,14.75
2023-04-21T02:13:37.474Z,12.10
2023-04-21T02:16:13.342Z,18.38
2023-04-21T02:18:41.346Z,13.43
2023-04-21T02:21:08.082Z,17.23
2023-04-21T02:23:34.520Z,12.13
2023-04-21T02:26:01.023Z,13.30
2023-04-21T02:28:27.557Z,15.95
2023-04-21T02:30:54.074Z,12.13
2023-04-21T02:33:20.623Z,13.10
2023-04-21T02:35:47.098Z,14.75
2023-04-21T02:38:13.544Z,14.95
2023-04-21T02:40:41.022Z,17.08
2023-04-21T02:43:07.874Z,10.90
2023-04-21T02:45:34.373Z,13.52
2023-04-21T02:48:00.905Z,12.98
2023-04-21T02:50:27.346Z,13.70
2023-04-21T02:52:54.502Z,11.45
2023-04-21T02:55:22.622Z,17.52
2023-04-21T02:57:49.117Z,14.02
2023-04-21T03:00:15.669Z,16.33
2023-04-21T03:02:42.395Z,14.30
2023-04-21T03:05:09.185Z,20.23
2023-04-21T03:07:35.790Z,13.95
2023-04-21T03:10:02.341Z,15.10
2023-04-21T03:12:28.882Z,18.42
2023-04-21T03:14:55.334Z,12.18
2023-04-21T03:17:21.854Z,15.68
2023-04-21T03:19:48.345Z,14.25
2023-04-21T03:22:14.802Z,17.65
2023-04-21T03:24:41.230Z,14.82
2023-04-21T03:27:09.761Z,15.55
2023-04-21T03:29:37.505Z,16.77
2023-04-21T03:32:04.073Z,18.70
2023-04-21T03:34:30.543Z,16.08
2023-04-21T03:36:57.049Z,15.55
2023-04-21T03:39:23.772Z,15.80
2023-04-21T03:41:51.629Z,14.63
2023-04-21T03:44:18.059Z,16.88
2023-04-21T03:46:44.528Z,13.27
2023-04-21T03:49:11.156Z,14.65
2023-04-21T03:51:37.673Z,15.95
2023-04-21T03:54:04.167Z,17.33
2023-04-21T03:56:30.706Z,18.77
2023-04-21T03:58:57.205Z,14.82
2023-04-21T04:01:23.692Z,18.73
2023-04-21T04:03:50.980Z,20.63
2023-04-21T04:06:17.801Z,16.88
2023-04-21T04:08:45.245Z,14.98
2023-04-21T04:11:11.789Z,16.98
2023-04-21T04:13:42.178Z,20.75
2023-04-21T04:16:08.784Z,23.25
2023-04-21T04:18:35.390Z,14.70
2023-04-21T04:21:08.348Z,18.33
2023-04-21T04:23:34.973Z,19.02
2023-04-21T04:26:01.712Z,19.27
2023-04-21T04:28:28.870Z,27.30
2023-04-21T04:30:55.392Z,20.58
2023-04-21T04:33:21.966Z,24.20
2023-04-21T04:35:48.444Z,20.02
2023-04-21T04:38:15.738Z,24.70
2023-04-21T04:40:42.693Z,25.67
2023-04-21T04:43:11.881Z,28.27
2023-04-21T04:45:40.718Z,20.00
2023-04-21T04:48:07.211Z,23.40
2023-04-21T04:50:33.739Z,20.05
2023-04-21T04:53:00.468Z,23.92
2023-04-21T04:55:26.984Z,24.05
2023-04-21T04:57:56.037Z,22.23
2023-04-21T05:00:22.859Z,27.90
2023-04-21T05:02:49.432Z,31.35
2023-04-21T05:05:16.076Z,27.15
2023-04-21T05:07:42.633Z,24.73
2023-04-21T05:10:09.398Z,32.08
2023-04-21T05:12:35.967Z,22.75
2023-04-21T05:15:02.413Z,23.02
2023-04-21T05:17:31.205Z,30.88
2023-04-21T05:19:57.840Z,24.20
2023-04-21T05:22:24.357Z,28.05
2023-04-21T05:24:50.896Z,24.63
2023-04-21T05:27:17.390Z,25.20
2023-04-21T05:29:43.992Z,25.60
2023-04-21T05:32:12.395Z,23.55
2023-04-21T05:34:39.040Z,27.05
2023-04-21T05:37:05.526Z,25.65
2023-04-21T05:39:32.034Z,23.80
2023-04-21T05:41:58.479Z,22.38
2023-04-21T05:44:25.649Z,19.40
2023-04-21T05:46:52.227Z,18.30
2023-04-21T05:49:18.869Z,22.75
2023-04-21T05:51:45.373Z,20.80
2023-04-21T05:54:11.793Z,20.88
2023-04-21T05:56:38.387Z,21.13
2023-04-21T05:59:06.931Z,19.73
2023-04-21T06:01:33.563Z,22.67
2023-04-21T06:04:00.441Z,16.67
2023-04-21T06:06:28.014Z,14.52
2023-04-21T06:08:54.548Z,15.30
2023-04-21T06:11:21.191Z,17.30
2023-04-21T06:13:47.935Z,13.68
2023-04-21T06:16:14.373Z,16.02
2023-04-21T06:18:40.910Z,20.00
2023-04-21T06:21:07.462Z,23.77
2023-04-21T06:23:33.951Z,22.85
2023-04-21T06:26:05.413Z,25.40
2023-04-21T06:28:32.529Z,23.17
2023-04-21T06:30:59.925Z,21.63
2023-04-21T06:33:26.901Z,22.17
2023-04-21T06:35:53.866Z,21.48
2023-04-21T06:38:20.520Z,22.27
2023-04-21T06:40:47.037Z,17.95
2023-04-21T06:43:13.599Z,14.73
2023-04-21T06:45:40.081Z,20.42
2023-04-21T06:48:07.224Z,18.52
2023-04-21T06:50:33.808Z,23.50
2023-04-21T06:53:00.302Z,16.20
2023-04-21T06:55:26.846Z,22.75
2023-04-21T06:57:53.876Z,16.90
2023-04-21T07:00:20.906Z,17.45
2023-04-21T07:02:47.412Z,18.10
2023-04-21T07:05:14.045Z,15.68
2023-04-21T07:07:40.581Z,13.48
2023-04-21T07:10:07.263Z,22.10
2023-04-21T07:12:33.824Z,13.85
2023-04-21T07:15:00.371Z,14.50
2023-04-21T07:17:27.068Z,12.35
2023-04-21T07:19:53.637Z,16.33
2023-04-21T07:22:20.100Z,18.02
2023-04-21T07:24:47.622Z,10.75
2023-04-21T07:27:15.707Z,11.13
2023-04-21T07:29:42.168Z,6.35
2023-04-21T07:32:08.690Z,12.02
2023-04-21T07:34:35.224Z,10.35
2023-04-21T07:37:01.684Z,9.15
2023-04-21T07:39:28.134Z,12.13
2023-04-21T07:41:55.863Z,8.05
2023-04-21T07:44:22.445Z,9.77
2023-04-21T07:46:48.948Z,8.23
2023-04-21T07:49:15.589Z,9.63
2023-04-21T07:51:42.041Z,11.20
2023-04-21T07:54:08.613Z,10.93
2023-04-21T07:56:35.102Z,6.28
2023-04-21T07:59:01.586Z,6.38
2023-04-21T08:01:28.024Z,7.07
2023-04-21T08:03:54.528Z,6.57
2023-04-21T08:06:21.563Z,7.70
2023-04-21T08:08:48.133Z,9.50
2023-04-21T08:11:14.706Z,7.43
2023-04-21T08:13:41.367Z,7.40
2023-04-21T08:16:08.074Z,6.65
2023-04-21T08:18:34.574Z,8.30
2023-04-21T08:21:02.352Z,5.72
2023-04-21T08:23:32.259Z,12.40
2023-04-21T08:25:58.997Z,6.85
2023-04-21T08:28:25.497Z,10.73
2023-04-21T08:30:51.961Z,9.05
2023-04-21T08:33:18.694Z,5.57
2023-04-21T08:35:58.909Z,14.52
2023-04-21T08:38:29.399Z,8.85
2023-04-21T08:40:56.389Z,9.40
2023-04-21T08:43:22.840Z,5.68
2023-04-21T08:45:50.052Z,8.25
2023-04-21T08:48:18.754Z,6.53
2023-04-21T08:50:46.720Z,5.28
2023-04-21T08:53:13.714Z,6.82
2023-04-21T08:55:40.840Z,4.50
2023-04-21T08:58:09.141Z,5.28
2023-04-21T09:00:36.275Z,5.70
2023-04-21T09:03:06.994Z,4.20
2023-04-21T09:05:41.886Z,11.25
2023-04-21T09:08:10.911Z,8.15
2023-04-21T09:10:48.190Z,9.02
2023-04-21T09:13:15.304Z,7.32
2023-04-21T09:15:42.618Z,4.82
2023-04-21T09:18:19.742Z,6.70
2023-04-21T09:20:46.896Z,7.18
2023-04-21T09:23:13.451Z,6.72
2023-04-21T09:25:40.744Z,7.38
2023-04-21T09:28:11.128Z,8.15
2023-04-21T09:30:38.557Z,6.63
2023-04-21T09:33:13.505Z,8.20
2023-04-21T09:35:48.094Z,6.82
2023-04-21T09:38:15.737Z,6.93
2023-04-21T09:40:42.212Z,5.97
2023-04-21T09:43:09.276Z,4.90
2023-04-21T09:45:40.277Z,9.40
2023-04-21T09:48:08.840Z,8.25
2023-04-21T09:51:11.465Z,7.78
2023-04-21T09:53:24.399Z,4.30
2023-04-21T09:55:51.713Z,9.18
2023-04-21T09:58:20.416Z,7.28
2023-04-21T10:00:47.003Z,7.00
2023-04-21T10:03:14.489Z,5.03
2023-04-21T10:05:43.103Z,8.82
2023-04-21T10:08:11.654Z,3.78
2023-04-21T10:10:38.784Z,4.55
2023-04-21T10:13:05.767Z,6.57
2023-04-21T10:15:39.908Z,4.55
2023-04-21T10:18:13.704Z,4.38
2023-04-21T10:21:06.794Z,8.55
2023-04-21T10:23:37.269Z,7.60
2023-04-21T10:26:12.840Z,7.65
2023-04-21T10:28:40.979Z,5.57
2023-04-21T10:31:17.369Z,5.00
2023-04-21T10:34:03.849Z,4.40
2023-04-21T10:36:30.919Z,7.13
2023-04-21T10:39:00.951Z,7.63
2023-04-21T10:41:31.175Z,9.60
2023-04-21T10:43:58.162Z,5.47
2023-04-21T10:46:36.739Z,6.63
2023-04-21T10:49:20.756Z,5.75
2023-04-21T10:51:59.565Z,4.10
2023-04-21T10:54:26.462Z,7.93
2023-04-21T10:56:55.333Z,4.72
2023-04-21T10:59:22.447Z,9.07
2023-04-21T11:01:49.008Z,6.47
2023-04-21T11:04:19.839Z,6.95
2023-04-21T11:07:05.241Z,6.20
2023-04-21T11:09:31.756Z,5.22
2023-04-21T11:12:04.578Z,4.30
2023-04-21T11:14:37.041Z,6.30
2023-04-21T11:17:04.461Z,5.50
2023-04-21T11:19:33.894Z,6.50
2023-04-21T11:22:00.549Z,5.53
2023-04-21T11:24:27.136Z,8.20
2023-04-21T11:26:53.869Z,8.27
2023-04-21T11:29:20.329Z,7.72
2023-04-21T11:31:53.773Z,15.23
2023-04-21T11:34:21.437Z,18.92
2023-04-21T11:36:48.901Z,10.18
2023-04-21T11:39:16.821Z,5.25
2023-04-21T11:41:44.733Z,6.47
2023-04-21T11:44:31.179Z,5.50
2023-04-21T11:47:14.745Z,4.13
2023-04-21T11:49:57.195Z,4.57
2023-04-21T11:52:27.435Z,5.68
2023-04-21T11:54:58.563Z,7.65
2023-04-21T11:57:25.624Z,5.95
2023-04-21T11:59:52.837Z,5.47
2023-04-21T12:02:26.863Z,4.97
2023-04-21T12:04:57.149Z,3.47
2023-04-21T12:07:29.513Z,5.53
2023-04-21T12:09:56.445Z,5.97
2023-04-21T12:12:24.370Z,3.58
2023-04-21T12:14:51.767Z,4.80
2023-04-21T12:17:18.292Z,6.07
2023-04-21T12:19:50.592Z,9.43
2023-04-21T12:22:23.016Z,4.15
2023-04-21T12:24:52.549Z,5.40
2023-04-21T12:27:19.244Z,4.97
2023-04-21T12:29:45.881Z,4.35
2023-04-21T12:32:12.910Z,6.90
2023-04-21T12:34:39.405Z,9.55
2023-04-21T12:37:06.307Z,3.47
2023-04-21T12:39:33.391Z,4.85
2023-04-21T12:42:00.158Z,5.45
2023-04-21T12:44:26.896Z,3.33
2023-04-21T12:46:53.504Z,9.77
2023-04-21T12:49:20.301Z,8.27
2023-04-21T12:51:47.244Z,6.20
2023-04-21T12:54:14.052Z,4.43
2023-04-21T12:56:42.212Z,5.20
2023-04-21T12:59:10.436Z,6.63
2023-04-21T13:01:40.746Z,4.85
2023-04-21T13:04:07.833Z,3.70
2023-04-21T13:06:34.835Z,4.95
2023-04-21T13:09:01.849Z,4.10
2023-04-21T13:11:28.481Z,4.93
2023-04-21T13:13:54.974Z,4.00
2023-04-21T13:16:21.525Z,5.03
2023-04-21T13:18:48.027Z,3.85
2023-04-21T13:21:14.593Z,4.45
2023-04-21T13:23:41.307Z,4.50
2023-04-21T13:26:07.941Z,3.92
2023-04-21T13:28:34.642Z,6.07
2023-04-21T13:31:03.055Z,4.70
2023-04-21T13:33:29.681Z,6.28
2023-04-21T13:35:56.126Z,4.47
2023-04-21T13:38:24.094Z,3.33
2023-04-21T13:40:51.206Z,3.75
2023-04-21T13:43:17.762Z,2.53
2023-04-21T13:45:44.342Z,4.63
2023-04-21T13:48:11.277Z,3.30
2023-04-21T13:50:37.943Z,4.55
2023-04-21T13:53:04.632Z,2.90
2023-04-21T13:55:31.322Z,3.95
2023-04-21T13:58:01.488Z,5.32
2023-04-21T14:00:27.969Z,3.22
2023-04-21T14:02:56.037Z,5.90
2023-04-21T14:05:22.942Z,6.82
2023-04-21T14:07:49.501Z,4.10
2023-04-21T14:10:16.058Z,5.00
2023-04-21T14:12:44.924Z,5.65
2023-04-21T14:15:12.289Z,4.85
2023-04-21T14:17:38.954Z,3.63
2023-04-21T14:20:07.436Z,4.40
2023-04-21T14:22:33.932Z,6.38
2023-04-21T14:25:00.500Z,4.65
2023-04-21T14:27:26.963Z,5.70
2023-04-21T14:29:53.506Z,4.75
2023-04-21T14:32:20.887Z,3.42
2023-04-21T14:34:48.126Z,5.03
2023-04-21T14:37:14.597Z,5.75
2023-04-21T14:39:41.253Z,7.35
2023-04-21T14:42:07.681Z,4.70
2023-04-21T14:44:35.521Z,4.50
2023-04-21T14:47:09.930Z,3.63
2023-04-21T14:49:38.101Z,6.28
2023-04-21T14:52:04.754Z,4.82
2023-04-21T14:54:31.357Z,4.55
2023-04-21T14:57:10.450Z,5.97
2023-04-21T14:59:46.534Z,4.80
2023-04-21T15:02:13.513Z,4.38
2023-04-21T15:04:40.359Z,4.80
2023-04-21T15:07:07.060Z,7.50
2023-04-21T15:09:34.021Z,4.90
2023-04-21T15:12:00.720Z,4.50
2023-04-21T15:14:27.621Z,8.40
2023-04-21T15:16:54.141Z,7.03
2023-04-21T15:19:21.712Z,10.05
2023-04-21T15:21:49.225Z,6.38
2023-04-21T15:24:15.709Z,5.55
2023-04-21T15:26:42.292Z,9.23
2023-04-21T15:29:10.526Z,4.80
2023-04-21T15:31:37.682Z,7.57
2023-04-21T15:34:04.267Z,5.00
2023-04-21T15:36:32.016Z,3.97
2023-04-21T15:38:58.496Z,3.47
2023-04-21T15:41:25.959Z,7.13
2023-04-21T15:43:52.559Z,5.40
2023-04-21T15:46:19.073Z,7.32
2023-04-21T15:48:45.675Z,4.60
2023-04-21T15:51:12.781Z,6.80
2023-04-21T15:53:43.910Z,6.97
2023-04-21T15:56:13.951Z,7.88
2023-04-21T15:58:41.682Z,8.40
2023-04-21T16:01:08.446Z,9.90
2023-04-21T16:03:35.450Z,10.95
2023-04-21T16:06:02.131Z,12.38
2023-04-21T16:08:29.022Z,6.63
2023-04-21T16:10:58.201Z,8.07
2023-04-21T16:13:24.725Z,7.47
2023-04-21T16:15:51.713Z,8.25
2023-04-21T16:18:18.252Z,12.57
2023-04-21T16:20:46.061Z,12.43
2023-04-21T16:23:13.071Z,9.38
2023-04-21T16:25:39.763Z,6.47
2023-04-21T16:28:09.899Z,10.10
2023-04-21T16:30:36.626Z,5.97
2023-04-21T16:33:03.174Z,8.57
2023-04-21T16:35:30.374Z,9.30
2023-04-21T16:37:56.977Z,6.20
2023-04-21T16:40:24.558Z,8.80
2023-04-21T16:43:00.202Z,7.60
2023-04-21T16:45:28.767Z,9.27
2023-04-21T16:47:56.274Z,8.63
2023-04-21T16:50:23.241Z,12.15
2023-04-21T16:52:49.792Z,7.82
2023-04-21T16:55:16.351Z,7.18
2023-04-21T16:57:42.890Z,10.93
2023-04-21T17:00:10.406Z,10.70
2023-04-21T17:02:37.101Z,12.52
2023-04-21T17:05:04.074Z,12.23
2023-04-21T17:07:32.135Z,8.23
2023-04-21T17:10:05.972Z,11.95
2023-04-21T17:12:33.457Z,8.77
2023-04-21T17:14:59.918Z,8.30
2023-04-21T17:17:26.580Z,9.00
2023-04-21T17:19:53.854Z,8.18
2023-04-21T17:22:20.730Z,9.95
2023-04-21T17:24:53.387Z,11.30
2023-04-21T17:27:21.066Z,14.63
2023-04-21T17:29:47.951Z,13.38
2023-04-21T17:32:14.607Z,15.25
2023-04-21T17:34:41.233Z,18.35
2023-04-21T17:37:07.962Z,34.63
2023-04-21T17:39:34.508Z,21.92
2023-04-21T17:42:02.618Z,17.90
2023-04-21T17:44:29.320Z,17.38
2023-04-21T17:46:55.951Z,17.33
2023-04-21T17:49:24.780Z,19.45
2023-04-21T17:51:51.723Z,13.70
2023-04-21T17:54:18.448Z,10.60
2023-04-21T17:56:46.230Z,19.52
2023-04-21T17:59:12.967Z,11.98
2023-04-21T18:01:39.474Z,16.08
2023-04-21T18:04:06.127Z,7.68
2023-04-21T18:06:32.683Z,18.08
2023-04-21T18:08:59.181Z,12.10
2023-04-21T18:11:25.677Z,13.55
2023-04-21T18:13:52.940Z,20.35
2023-04-21T18:16:19.528Z,17.48
2023-04-21T18:18:47.381Z,18.13
2023-04-21T18:21:14.452Z,12.43
2023-04-21T18:23:41.030Z,11.75
2023-04-21T18:26:08.421Z,13.65
2023-04-21T18:28:34.907Z,10.75
2023-04-21T18:31:01.747Z,19.27
2023-04-21T18:33:28.540Z,15.02
2023-04-21T18:35:55.069Z,15.10
2023-04-21T18:38:21.555Z,6.72
2023-04-21T18:40:48.047Z,10.95
2023-04-21T18:43:14.881Z,11.02
2023-04-21T18:45:41.451Z,12.80
2023-04-21T18:48:08.174Z,17.00
2023-04-21T18:50:39.475Z,10.10
2023-04-21T18:53:07.395Z,12.52
2023-04-21T18:55:35.908Z,10.40
2023-04-21T18:58:02.567Z,18.35
2023-04-21T19:00:29.802Z,6.72
2023-04-21T19:02:56.508Z,11.38
2023-04-21T19:05:23.156Z,15.77
2023-04-21T19:07:49.738Z,8.13
2023-04-21T19:10:16.778Z,11.63
2023-04-21T19:12:43.689Z,16.40
2023-04-21T19:15:10.260Z,12.52
2023-04-21T19:17:36.804Z,10.93
2023-04-21T19:20:03.406Z,12.60
2023-04-21T19:22:31.962Z,10.68
2023-04-21T19:24:58.477Z,7.88
2023-04-21T19:27:25.051Z,10.93
2023-04-21T19:29:51.607Z,16.83
2023-04-21T19:32:18.201Z,10.57
2023-04-21T19:34:44.957Z,10.55
2023-04-21T19:37:11.539Z,9.27
2023-04-21T19:39:38.017Z,10.93
2023-04-21T19:42:04.835Z,7.55
2023-04-21T19:44:31.555Z,13.75
2023-04-21T19:46:58.160Z,13.13
2023-04-21T19:49:24.620Z,11.90
2023-04-21T19:51:51.782Z,10.77
2023-04-21T19:54:18.285Z,11.43
2023-04-21T19:56:44.977Z,11.55
2023-04-21T19:59:11.527Z,6.97
2023-04-21T20:01:38.182Z,11.98
2023-04-21T20:04:05.552Z,10.35
2023-04-21T20:06:33.850Z,10.07
2023-04-21T20:09:05.670Z,8.25
2023-04-21T20:11:33.697Z,9.73
2023-04-21T20:14:00.252Z,9.70
2023-04-21T20:16:27.310Z,12.35
2023-04-21T20:18:54.240Z,8.40
2023-04-21T20:21:20.724Z,11.88
2023-04-21T20:23:47.294Z,9.98
2023-04-21T20:26:13.804Z,8.18
2023-04-21T20:28:40.246Z,12.60
2023-04-21T20:31:07.024Z,17.27
2023-04-21T20:33:33.898Z,17.10
2023-04-21T20:36:04.227Z,14.25
2023-04-21T20:38:34.392Z,15.88
2023-04-21T20:41:01.488Z,12.52
2023-04-21T20:43:28.285Z,9.95
2023-04-21T20:45:55.372Z,12.95
2023-04-21T20:48:22.240Z,9.90
2023-04-21T20:50:51.254Z,16.08
2023-04-21T20:53:18.249Z,9.32
2023-04-21T20:55:44.757Z,9.88
2023-04-21T20:58:11.305Z,16.65
2023-04-21T21:00:37.855Z,11.77
2023-04-21T21:03:09.921Z,10.57
2023-04-21T21:05:37.756Z,18.25
2023-04-21T21:08:04.947Z,17.05
2023-04-21T21:10:37.005Z,12.70
2023-04-21T21:13:03.631Z,15.02
2023-04-21T21:15:33.871Z,8.65
2023-04-21T21:18:00.933Z,11.20
2023-04-21T21:20:27.426Z,15.80
2023-04-21T21:22:54.096Z,11.18
2023-04-21T21:25:20.626Z,8.55
2023-04-21T21:27:47.251Z,7.65
2023-04-21T21:30:13.830Z,8.90
2023-04-21T21:32:40.337Z,8.75
2023-04-21T21:35:09.391Z,9.77
2023-04-21T21:37:36.213Z,10.32
2023-04-21T21:40:02.689Z,7.68
2023-04-21T21:42:29.229Z,11.25
2023-04-21T21:44:55.711Z,14.73
2023-04-21T21:47:22.302Z,7.47
2023-04-21T21:49:49.031Z,9.48
2023-04-21T21:52:15.517Z,8.80
2023-04-21T21:54:42.014Z,13.18
2023-04-21T21:57:08.585Z,10.43
2023-04-21T21:59:35.092Z,18.10
2023-04-21T22:02:01.831Z,10.15
2023-04-21T22:04:28.481Z,9.38
2023-04-21T22:06:54.917Z,13.07
2023-04-21T22:09:21.471Z,9.00
2023-04-21T22:11:48.013Z,8.00
2023-04-21T22:14:22.069Z,17.15
2023-04-21T22:16:50.561Z,14.48
2023-04-21T22:19:19.160Z,10.82
2023-04-21T22:21:45.878Z,10.05
2023-04-21T22:24:12.398Z,13.05
2023-04-21T22:26:38.953Z,10.77
2023-04-21T22:29:05.999Z,8.35
2023-04-21T22:31:32.494Z,9.07
2023-04-21T22:33:58.997Z,11.90
2023-04-21T22:36:25.453Z,11.50
2023-04-21T22:38:52.262Z,13.10
2023-04-21T22:41:18.818Z,5.85
2023-04-21T22:43:45.280Z,9.40
2023-04-21T22:46:12.306Z,9.63
2023-04-21T22:48:38.826Z,11.40
2023-04-21T22:51:06.391Z,7.43
2023-04-21T22:53:33.421Z,8.90
2023-04-21T22:55:59.895Z,15.48
2023-04-21T22:58:26.518Z,12.38
2023-04-21T23:00:53.067Z,10.48
2023-04-21T23:03:19.655Z,16.42
2023-04-21T23:05:46.251Z,13.15
2023-04-21T23:08:12.687Z,13.95
2023-04-21T23:10:39.169Z,8.52
2023-04-21T23:13:05.955Z,11.80
2023-04-21T23:15:33.415Z,11.98
2023-04-21T23:18:00.062Z,12.60
2023-04-21T23:20:27.010Z,8.35
2023-04-21T23:22:53.944Z,13.85
2023-04-21T23:25:20.804Z,8.27
2023-04-21T23:27:47.308Z,9.55
2023-04-21T23:30:14.001Z,12.68
2023-04-21T23:32:41.267Z,8.35
2023-04-21T23:35:08.143Z,11.82
2023-04-21T23:37:34.607Z,9.15
2023-04-21T23:40:01.152Z,12.07
2023-04-21T23:42:27.732Z,14.05
2023-04-21T23:44:54.181Z,11.02
2023-04-21T23:47:20.775Z,12.27
2023-04-21T23:49:47.308Z,10.50
2023-04-21T23:52:14.958Z,9.85
2023-04-21T23:54:41.539Z,9.43
2023-04-21T23:57:08.092Z,10.98
2023-04-21T23:59:35.266Z,11.82
